Terminal Aerodrome Forecast
Issued by NWS Charleston, WV

Current Version | Previous Version | Text Only | Print | Product List | Glossary Off
Versions: 1 2 3 4 5 6 7 8 9 10 11 12 13 14 15 16 17 18 19 20 21

767
FTUS41 KRLX 052335
TAFHTS
TAF
KHTS 052335Z 0600/0624 00000KT P6SM FEW150
     FM061200 19004KT P6SM BKN040
     FM061400 21004KT P6SM SCT040
     FM061700 24005KT P6SM BKN200
     FM062100 25005KT P6SM BKN060=

USA.gov is the U.S. government's official web portal to all federal, state and local government web resources and services.